Pagina principale
METAR-TAF:

METAR-TAF

Aeroporti :

Aigen im Ennstal, Austria

latitudine: 47-32N, longitudine: 014-08E, altezza: 638 m

METAR: mancante

Ora: 11:47 (10:47 UTC)

Previsione

Il bollettino è stato emesso 2 ore e 32 minuti fa, alle 08:15 UTC
Previsione valida dal 09 alle 09 UTC al 09 alle 18 UTC
Vento 3 kt da direzioni variabili
Visibilità 10 km o più
Poco nuvoloso ad un'altezza di 3000 ft
Nubi sparse ad un'altezza di 25000 ft
Temporaneamente
dal 09 alle 10 UTC al 09 alle 18 UTC
Vento 8 kt da nord-est
Poco nuvoloso ad un'altezza di 3000 ft
Nubi sparse ad un'altezza di 6000 ft
Evoluzione graduale
dal 09 alle 16 UTC al 09 alle 18 UTC
Nubi sparse ad un'altezza di 3000 ft
Nuvoloso ad un'altezza di 6000 ft

TAF: LOXA 090815Z 0909/0918 VRB03KT 9999 FEW030 SCT250 TEMPO 0910/0918 05008KT FEW030 SCT060 BECMG 0916/0918 SCT030 BKN060

Osservazioni e previsioni meteorologiche di più di 4000 aeroporti (messaggi METAR e TAF).

Le stazioni disponibili sono rappresentate dai dischi gialli e rossi sulla carta.

Puntare il mouse per vedere il nome della stazione.

Clicca sopra per visualizzare le osservazioni e previsioni meteorologiche.

Per cambiare la mappa : fare clic sui pulsanti verdi con una croce nera per ingrandire, il pulsante verde con un trattino per diminuire, o sulla freccia verde per le mappe adiacenti.


METAR-TAF: